Time;durP1;ratioP1;P1;durP2;ratioP2;P2;SDS_P1;SDS_P2;PMS_P1;PMS_P2;Temp;Humidity;BMP_temperature;BMP_pressure;BME280_temperature;BME280_humidity;BME280_pressure;Samples;Min_cycle;Max_cycle;Signal;HPM_P1;HPM_P2
2021/10/09 00:02:02;;;;;;;27.80;24.60;;;;;;;12.00;81.26;102932.53;5040078;28;20461;-68
2021/10/09 00:04:27;;;;;;;30.33;24.70;;;;;;;11.99;81.80;102930.75;5040819;28;20185;-68
2021/10/09 00:06:53;;;;;;;31.73;24.50;;;;;;;12.15;81.07;102936.56;5040250;28;20189;-68
2021/10/09 00:09:18;;;;;;;30.23;23.13;;;;;;;11.96;81.93;102930.59;5040214;28;20183;-68
2021/10/09 00:11:43;;;;;;;30.50;24.10;;;;;;;11.86;81.35;102928.44;5040355;28;20185;-68
2021/10/09 00:14:12;;;;;;;26.30;22.70;;;;;;;11.94;80.96;102929.63;5040080;28;20182;-68
2021/10/09 00:16:38;;;;;;;29.27;22.23;;;;;;;11.74;81.29;102927.09;5044258;28;20228;-68
2021/10/09 00:19:04;;;;;;;29.67;23.43;;;;;;;12.06;79.95;102921.44;5045616;28;20491;-69
2021/10/09 00:21:29;;;;;;;31.40;23.57;;;;;;;11.80;80.61;102923.88;5045563;28;20446;-68
2021/10/09 00:23:54;;;;;;;29.77;23.13;;;;;;;12.25;78.69;102925.63;5040619;28;20213;-67
2021/10/09 00:26:20;;;;;;;28.03;23.50;;;;;;;12.29;78.98;102925.78;5040510;28;20484;-68
2021/10/09 00:28:46;;;;;;;28.13;23.40;;;;;;;12.52;77.57;102927.50;5040227;28;20171;-70
2021/10/09 00:31:11;;;;;;;35.83;23.80;;;;;;;11.82;80.00;102919.59;5039658;28;20245;-67
2021/10/09 00:33:36;;;;;;;28.03;22.50;;;;;;;11.78;79.76;102925.53;5040029;28;20410;-68
2021/10/09 00:36:02;;;;;;;34.07;23.30;;;;;;;11.65;80.42;102929.38;5039468;28;20220;-68
2021/10/09 00:38:27;;;;;;;29.20;22.97;;;;;;;11.46;81.74;102931.22;5025405;28;20209;-68
2021/10/09 00:40:52;;;;;;;27.80;21.97;;;;;;;11.68;80.10;102928.63;5059386;28;20487;-69
2021/10/09 00:43:17;;;;;;;26.60;23.73;;;;;;;11.78;80.01;102923.81;5059316;28;20173;-69
2021/10/09 00:45:54;;;;;;;26.60;22.90;;;;;;;11.63;80.21;102928.41;5059585;28;20264;-68
2021/10/09 00:48:19;;;;;;;24.60;21.77;;;;;;;11.52;80.86;102930.59;5059783;28;20541;-68
2021/10/09 00:50:44;;;;;;;27.27;22.33;;;;;;;11.48;80.80;102927.81;5059270;28;20386;-68
2021/10/09 00:53:10;;;;;;;30.13;23.53;;;;;;;11.46;80.45;102930.34;5059532;28;20256;-69
2021/10/09 00:55:36;;;;;;;28.90;23.20;;;;;;;11.23;81.51;102927.66;5041943;28;20219;-69
2021/10/09 00:58:02;;;;;;;26.20;23.33;;;;;;;11.68;79.54;102926.00;5059192;28;20390;-67
2021/10/09 01:00:27;;;;;;;30.97;24.20;;;;;;;11.66;79.03;102927.66;5059513;28;20173;-69
2021/10/09 01:02:52;;;;;;;25.70;22.90;;;;;;;11.50;79.30;102928.75;5059216;28;20174;-68
2021/10/09 01:05:19;;;;;;;30.27;22.73;;;;;;;11.68;79.01;102923.41;5059227;28;20172;-68
2021/10/09 01:07:44;;;;;;;29.93;23.07;;;;;;;11.91;77.96;102924.31;5059685;28;20169;-69
2021/10/09 01:10:10;;;;;;;31.33;24.10;;;;;;;11.56;78.50;102926.41;5059884;28;20680;-68
2021/10/09 01:12:35;;;;;;;29.67;23.70;;;;;;;11.28;80.15;102925.25;5059432;28;20174;-70
2021/10/09 01:15:17;;;;;;;27.23;23.90;;;;;;;11.94;77.52;102916.56;5059921;28;20250;-69
2021/10/09 01:17:42;;;;;;;30.20;23.00;;;;;;;11.44;79.05;102921.53;5058982;28;20189;-67
2021/10/09 01:20:12;;;;;;;29.50;23.80;;;;;;;11.14;80.28;102914.22;5058878;28;20456;-68
2021/10/09 01:22:37;;;;;;;27.33;22.93;;;;;;;11.38;79.73;102924.81;5058876;28;20170;-68
2021/10/09 01:25:03;;;;;;;32.43;24.87;;;;;;;11.55;78.89;102924.59;5058703;28;20408;-67
2021/10/09 01:27:29;;;;;;;33.57;23.40;;;;;;;11.15;80.12;102925.53;5058979;28;20199;-68
2021/10/09 01:29:54;;;;;;;26.63;23.83;;;;;;;11.35;79.36;102918.56;5041517;28;20391;-68
2021/10/09 01:32:19;;;;;;;27.40;22.87;;;;;;;11.54;78.90;102923.72;5058622;28;20173;-68
2021/10/09 01:34:45;;;;;;;31.87;24.03;;;;;;;11.15;80.15;102926.47;5058933;28;20565;-67
2021/10/09 01:37:10;;;;;;;25.30;22.20;;;;;;;10.88;81.52;102924.44;5058557;28;20266;-68
2021/10/09 01:39:49;;;;;;;29.80;25.07;;;;;;;11.44;79.27;102921.53;5058348;28;20232;-67
2021/10/09 01:42:15;;;;;;;28.77;24.70;;;;;;;11.34;78.78;102924.59;5058711;28;20165;-68
2021/10/09 01:44:41;;;;;;;31.13;25.43;;;;;;;11.58;78.12;102923.00;5058464;28;20408;-68
2021/10/09 01:47:07;;;;;;;29.00;24.50;;;;;;;11.71;77.63;102920.91;5058087;28;20247;-68
2021/10/09 01:49:32;;;;;;;34.90;25.97;;;;;;;11.28;78.68;102920.94;5058351;28;20412;-68
2021/10/09 01:51:58;;;;;;;29.10;23.93;;;;;;;11.00;79.36;102918.88;5058168;28;20244;-68
2021/10/09 01:54:23;;;;;;;28.50;22.60;;;;;;;10.82;80.59;102920.66;5058300;28;20176;-68
2021/10/09 01:56:49;;;;;;;30.53;24.53;;;;;;;10.93;80.45;102916.78;5058751;28;20170;-68
2021/10/09 01:59:15;;;;;;;26.33;22.80;;;;;;;11.29;79.51;102916.59;5058283;28;20205;-67
2021/10/09 02:01:40;;;;;;;32.03;24.27;;;;;;;10.71;81.16;102918.47;5058208;28;20682;-68
2021/10/09 02:04:05;;;;;;;28.10;23.97;;;;;;;10.93;80.44;102922.00;5058724;28;20184;-67
2021/10/09 02:06:31;;;;;;;32.43;24.50;;;;;;;10.55;81.82;102927.34;5057430;28;20181;-68
2021/10/09 02:08:56;;;;;;;28.87;23.40;;;;;;;10.63;81.45;102919.84;5058161;28;20169;-67
2021/10/09 02:11:24;;;;;;;38.13;25.03;;;;;;;10.41;82.04;102918.88;5058374;28;20172;-68
2021/10/09 02:13:57;;;;;;;28.97;22.97;;;;;;;10.51;81.92;102921.91;5057918;28;20165;-67
2021/10/09 02:27:08;;;;;;;30.20;23.53;;;;;;;10.11;82.54;102911.41;5057927;28;20451;-68
2021/10/09 02:29:34;;;;;;;28.53;23.43;;;;;;;10.34;82.47;102919.41;5057836;28;20446;-67
2021/10/09 02:31:59;;;;;;;40.43;25.07;;;;;;;10.09;83.62;102919.97;5057714;28;20180;-68
2021/10/09 02:34:25;;;;;;;31.57;25.10;;;;;;;10.38;82.17;102921.34;5058424;28;20478;-67
2021/10/09 02:36:50;;;;;;;29.70;23.87;;;;;;;10.02;83.02;102913.56;5057871;28;20177;-68
2021/10/09 02:39:15;;;;;;;28.03;23.20;;;;;;;10.21;82.75;102914.44;5057708;28;20250;-67
2021/10/09 02:41:41;;;;;;;29.30;24.50;;;;;;;9.90;83.12;102916.53;5058309;28;20178;-67
2021/10/09 02:44:06;;;;;;;34.23;26.50;;;;;;;10.34;81.82;102913.31;5058490;28;20469;-68
2021/10/09 02:46:31;;;;;;;31.40;24.30;;;;;;;9.99;82.61;102915.16;5040238;28;20193;-68
2021/10/09 02:48:57;;;;;;;37.03;25.33;;;;;;;10.18;82.27;102909.97;5058492;28;20554;-68
2021/10/09 02:51:22;;;;;;;27.70;24.00;;;;;;;9.98;82.83;102913.38;5057628;28;20264;-68
2021/10/09 02:53:47;;;;;;;29.57;24.90;;;;;;;10.09;82.11;102910.47;5057533;28;20169;-68
2021/10/09 02:56:13;;;;;;;30.23;24.17;;;;;;;10.26;81.67;102918.16;5062949;28;20174;-69
2021/10/09 02:58:38;;;;;;;32.07;23.00;;;;;;;10.34;80.98;102914.19;5062673;28;20510;-69
2021/10/09 03:01:03;;;;;;;32.40;24.87;;;;;;;10.01;82.40;102914.44;5062654;28;20174;-68
2021/10/09 03:03:28;;;;;;;30.20;23.47;;;;;;;10.31;80.38;102906.22;5058583;28;20223;-68
2021/10/09 03:05:55;;;;;;;35.80;25.50;;;;;;;10.24;81.04;102906.75;5057766;28;20207;-68
2021/10/09 03:08:20;;;;;;;30.90;24.40;;;;;;;10.01;81.52;102913.50;5057746;28;20420;-68
2021/10/09 03:10:45;;;;;;;36.10;24.43;;;;;;;10.00;81.55;102911.72;5057822;28;20582;-68
2021/10/09 03:13:11;;;;;;;28.23;24.37;;;;;;;10.23;81.21;102915.41;5057421;28;20184;-68
2021/10/09 03:15:36;;;;;;;30.53;24.17;;;;;;;10.20;80.59;102907.44;5057429;28;20235;-68
2021/10/09 03:18:02;;;;;;;28.30;23.23;;;;;;;10.07;80.13;102919.03;5061278;28;20174;-67
2021/10/09 03:20:27;;;;;;;31.10;24.27;;;;;;;9.74;82.12;102919.19;5061008;28;20223;-68
2021/10/09 03:22:52;;;;;;;29.53;24.60;;;;;;;9.93;81.12;102915.75;5062217;28;20584;-69
2021/10/09 03:25:18;;;;;;;28.80;25.03;;;;;;;10.26;79.68;102910.34;5072883;28;20169;-68
2021/10/09 03:27:43;;;;;;;34.43;24.47;;;;;;;10.01;79.64;102916.13;5071106;28;20173;-68
2021/10/09 03:30:09;;;;;;;33.53;25.17;;;;;;;10.40;78.38;102913.59;5073266;28;20174;-68
2021/10/09 03:32:35;;;;;;;31.33;23.83;;;;;;;10.19;78.55;102921.28;5066839;28;20252;-68
2021/10/09 03:35:00;;;;;;;34.57;26.03;;;;;;;10.26;78.74;102920.75;5043891;28;20452;-68
2021/10/09 03:37:26;;;;;;;31.63;24.20;;;;;;;10.20;78.44;102917.88;5043654;28;20437;-68
2021/10/09 03:39:53;;;;;;;30.73;24.30;;;;;;;10.00;79.19;102920.44;5061699;28;20247;-69
2021/10/09 03:42:31;;;;;;;30.90;24.70;;;;;;;10.13;79.17;102919.28;5060698;28;20173;-67
2021/10/09 03:45:01;;;;;;;29.87;24.37;;;;;;;9.96;78.92;102915.91;5060672;28;20412;-69
2021/10/09 03:50:17;;;;;;;28.60;23.57;;;;;;;9.84;79.36;102923.16;5060769;28;20398;-68
2021/10/09 03:52:42;;;;;;;30.67;21.97;;;;;;;9.98;78.67;102923.78;5060338;28;20464;-68
2021/10/09 03:55:10;;;;;;;33.40;26.17;;;;;;;9.83;78.78;102918.75;5060591;28;20435;-68
2021/10/09 03:57:36;;;;;;;26.70;22.23;;;;;;;9.64;79.58;102922.19;5060471;28;20182;-68
2021/10/09 04:00:06;;;;;;;25.80;22.10;;;;;;;9.69;79.46;102925.91;5060079;28;20537;-68
2021/10/09 04:02:32;;;;;;;28.87;24.23;;;;;;;9.89;78.96;102914.72;5060864;28;20703;-68
2021/10/09 04:04:58;;;;;;;27.37;21.70;;;;;;;10.21;77.02;102911.84;5060373;28;20750;-67
2021/10/09 04:07:23;;;;;;;31.37;23.07;;;;;;;9.43;80.04;102921.19;5060338;28;20507;-68
2021/10/09 04:09:48;;;;;;;27.53;22.90;;;;;;;9.81;78.80;102916.06;5060848;28;20199;-68
2021/10/09 04:12:14;;;;;;;31.40;22.80;;;;;;;9.59;79.10;102914.13;5060054;28;20484;-68
2021/10/09 04:14:40;;;;;;;26.83;23.47;;;;;;;9.38;79.91;102916.59;5060226;28;20173;-67
2021/10/09 04:17:05;;;;;;;28.93;22.40;;;;;;;9.30;79.82;102913.59;5061040;28;20197;-69
2021/10/09 04:19:31;;;;;;;29.83;22.70;;;;;;;9.40;80.31;102918.47;5060771;28;20514;-67
2021/10/09 04:21:56;;;;;;;33.00;24.20;;;;;;;9.86;78.19;102913.69;5060174;28;20185;-67
2021/10/09 04:24:21;;;;;;;28.17;22.50;;;;;;;9.30;80.16;102916.19;5060580;28;20406;-68
2021/10/09 04:26:47;;;;;;;29.60;23.23;;;;;;;9.54;79.33;102907.78;5059998;28;20188;-68
2021/10/09 04:29:12;;;;;;;29.00;23.83;;;;;;;9.53;79.31;102912.13;5059075;28;20173;-68
2021/10/09 04:31:38;;;;;;;26.63;22.07;;;;;;;9.20;80.60;102919.16;5060153;28;20408;-67
2021/10/09 04:34:03;;;;;;;29.90;21.80;;;;;;;9.94;77.85;102905.41;5059731;28;20519;-69
2021/10/09 04:36:28;;;;;;;26.87;22.03;;;;;;;9.42;79.15;102911.59;5059662;28;20262;-68
2021/10/09 04:38:54;;;;;;;29.03;23.00;;;;;;;9.45;78.91;102903.03;5060129;28;20233;-67
2021/10/09 04:41:19;;;;;;;28.63;22.37;;;;;;;9.66;77.73;102907.50;5059676;28;20543;-68
2021/10/09 04:43:44;;;;;;;24.60;20.23;;;;;;;9.31;79.44;102911.88;5059567;28;20446;-68
2021/10/09 04:46:10;;;;;;;28.33;23.17;;;;;;;9.08;79.78;102917.72;5060001;28;20173;-68
2021/10/09 04:48:35;;;;;;;32.80;22.87;;;;;;;9.29;79.83;102922.22;5059552;28;20169;-67
2021/10/09 04:51:00;;;;;;;30.27;23.73;;;;;;;9.08;80.31;102920.31;5059019;28;20617;-67
2021/10/09 04:53:26;;;;;;;28.97;22.40;;;;;;;9.47;78.50;102909.25;5042423;28;20254;-67
2021/10/09 04:55:51;;;;;;;28.87;22.90;;;;;;;9.07;80.24;102915.91;5059271;28;20470;-68
2021/10/09 04:58:16;;;;;;;31.53;24.30;;;;;;;8.85;81.11;102920.84;5059275;28;20185;-68
2021/10/09 05:00:41;;;;;;;26.63;22.43;;;;;;;9.10;80.10;102923.88;5059513;28;20161;-67
2021/10/09 05:03:07;;;;;;;28.33;22.57;;;;;;;9.54;78.23;102913.91;5059268;28;20567;-67
2021/10/09 05:05:32;;;;;;;34.00;24.20;;;;;;;8.97;80.14;102931.91;5059207;28;20170;-68
2021/10/09 05:07:57;;;;;;;28.67;22.83;;;;;;;9.21;78.57;102928.75;5059722;28;20227;-67
2021/10/09 05:10:25;;;;;;;28.80;23.37;;;;;;;8.96;79.92;102924.91;5058920;28;20174;-68
2021/10/09 05:12:51;;;;;;;27.80;22.70;;;;;;;8.88;80.76;102934.03;5058987;28;20260;-68
2021/10/09 05:15:16;;;;;;;27.30;22.60;;;;;;;8.64;81.26;102931.03;5059567;28;20823;-68
2021/10/09 05:17:41;;;;;;;27.60;21.93;;;;;;;8.82;80.27;102931.09;5058992;28;20219;-68
2021/10/09 05:20:07;;;;;;;32.47;21.13;;;;;;;8.72;80.55;102934.91;5058727;28;20483;-67
2021/10/09 05:22:32;;;;;;;32.63;23.40;;;;;;;9.00;79.51;102931.13;5059354;28;20178;-67
2021/10/09 05:24:58;;;;;;;29.13;22.93;;;;;;;8.90;79.26;102932.38;5058710;28;20557;-68
2021/10/09 05:27:23;;;;;;;28.63;23.20;;;;;;;9.15;78.17;102925.84;5058682;28;20236;-68
2021/10/09 05:29:49;;;;;;;26.03;21.67;;;;;;;8.81;79.16;102939.69;5059547;28;20172;-67
2021/10/09 05:32:21;;;;;;;23.50;20.27;;;;;;;8.73;78.41;102935.00;5058560;28;20177;-68
2021/10/09 05:34:46;;;;;;;27.40;21.27;;;;;;;9.30;76.87;102925.72;5062092;28;20230;-68
2021/10/09 05:37:12;;;;;;;26.30;22.30;;;;;;;9.33;75.69;102947.56;5047340;28;20483;-70
2021/10/09 05:39:37;;;;;;;27.40;21.07;;;;;;;9.02;76.09;102939.94;5059805;28;20340;-67
2021/10/09 05:42:03;;;;;;;30.50;21.20;;;;;;;9.73;74.34;102941.75;5058834;28;20416;-68
2021/10/09 05:44:28;;;;;;;28.57;21.47;;;;;;;9.71;74.06;102940.75;5059187;28;20176;-68
2021/10/09 05:46:53;;;;;;;26.50;20.93;;;;;;;9.51;74.61;102939.81;5058361;28;20293;-67
2021/10/09 05:49:19;;;;;;;26.03;20.30;;;;;;;9.25;74.97;102942.00;5058418;28;20204;-67
2021/10/09 05:54:34;;;;;;;26.40;20.73;;;;;;;9.40;73.70;102940.97;5058338;28;20192;-68
2021/10/09 05:57:08;;;;;;;25.60;20.30;;;;;;;9.04;75.47;102946.13;5058616;28;20511;-68
2021/10/09 06:25:03;;;;;;;23.80;19.17;;;;;;;9.32;73.95;102951.00;5058113;28;20420;-68
2021/10/09 06:45:25;;;;;;;20.37;17.00;;;;;;;13.01;58.86;102947.56;5057873;28;20420;-68
2021/10/09 07:01:42;;;;;;;18.50;15.23;;;;;;;14.31;52.74;102970.13;5061658;28;20415;-68
2021/10/09 07:04:07;;;;;;;16.90;14.40;;;;;;;14.21;52.41;102968.09;5061516;28;20817;-68
2021/10/09 07:06:33;;;;;;;15.97;14.27;;;;;;;15.70;49.20;102963.41;5061395;28;20438;-69
2021/10/09 07:08:58;;;;;;;15.83;14.27;;;;;;;14.64;50.68;102974.66;5062102;28;20173;-69
2021/10/09 07:11:25;;;;;;;18.23;14.50;;;;;;;16.14;48.62;102970.56;5061245;28;20188;-68
2021/10/09 07:13:50;;;;;;;19.43;14.13;;;;;;;14.92;51.03;102978.03;5061167;28;20169;-68
2021/10/09 07:16:15;;;;;;;16.53;14.00;;;;;;;15.55;48.05;102977.06;5061858;28;20791;-70
2021/10/09 07:18:40;;;;;;;21.90;14.00;;;;;;;15.57;48.06;102979.72;5061462;28;20193;-70
2021/10/09 07:21:06;;;;;;;16.10;13.03;;;;;;;16.40;47.16;102975.50;5061181;28;20228;-69
2021/10/09 07:23:31;;;;;;;15.20;13.20;;;;;;;17.42;43.65;102975.72;5061757;28;20173;-69
2021/10/09 07:25:56;;;;;;;17.43;14.10;;;;;;;16.75;43.89;102973.63;5061165;28;20436;-69
2021/10/09 07:28:22;;;;;;;15.50;14.10;;;;;;;17.44;43.19;102971.38;5061407;28;20166;-68
2021/10/09 07:30:47;;;;;;;17.03;14.30;;;;;;;16.60;44.68;102975.94;5061322;28;20170;-69
2021/10/09 07:33:12;;;;;;;15.60;14.00;;;;;;;16.37;46.74;102976.31;5060885;28;20173;-68
2021/10/09 07:35:38;;;;;;;16.10;13.70;;;;;;;17.56;42.91;102975.06;5060756;28;20184;-68
2021/10/09 07:38:03;;;;;;;15.30;13.70;;;;;;;15.38;45.65;102981.88;5061447;28;20173;-68
2021/10/09 07:40:28;;;;;;;15.10;13.50;;;;;;;15.68;46.97;102990.50;5060602;28;20220;-71
2021/10/09 07:42:54;;;;;;;16.57;14.97;;;;;;;17.48;42.19;102983.75;5060967;28;20166;-69
2021/10/09 07:45:19;;;;;;;17.47;15.07;;;;;;;14.71;48.46;102997.59;5060940;28;20169;-69
2021/10/09 07:47:44;;;;;;;17.53;14.10;;;;;;;16.90;44.42;102991.50;5060698;28;20202;-68
2021/10/09 07:50:11;;;;;;;17.70;13.50;;;;;;;16.40;45.09;102989.56;5060461;28;20244;-70
2021/10/09 07:52:36;;;;;;;20.50;14.97;;;;;;;15.74;44.98;102993.31;5060447;28;20213;-68
2021/10/09 07:55:03;;;;;;;15.43;13.70;;;;;;;15.05;46.68;103001.16;5060533;28;20426;-68
2021/10/09 07:57:28;;;;;;;15.87;14.23;;;;;;;15.18;46.66;103002.41;5043407;28;20238;-67
2021/10/09 07:59:54;;;;;;;16.90;15.20;;;;;;;17.71;41.88;102990.25;5060194;28;20464;-69
2021/10/09 08:02:19;;;;;;;17.30;14.00;;;;;;;15.59;46.26;102989.44;5060060;28;20174;-69
2021/10/09 08:04:45;;;;;;;16.87;15.07;;;;;;;16.32;44.10;102983.25;5060072;28;20248;-68
2021/10/09 08:07:10;;;;;;;16.33;14.60;;;;;;;17.51;43.00;102975.88;5060150;28;20173;-68
2021/10/09 08:09:36;;;;;;;18.97;15.47;;;;;;;17.59;42.64;102976.03;5053551;28;20188;-68
2021/10/09 08:12:02;;;;;;;14.73;13.23;;;;;;;16.54;43.50;102984.59;5054855;28;20605;-68
2021/10/09 08:14:28;;;;;;;15.40;13.40;;;;;;;15.91;45.68;102983.19;5056330;28;20519;-69
2021/10/09 08:16:53;;;;;;;17.10;13.70;;;;;;;16.79;44.30;102978.09;5062953;28;20466;-68
2021/10/09 08:19:19;;;;;;;20.17;14.70;;;;;;;16.80;43.52;102978.97;5061964;28;20209;-69
2021/10/09 08:21:45;;;;;;;16.90;14.17;;;;;;;18.13;41.19;102973.31;5042679;28;20535;-69
2021/10/09 08:24:26;;;;;;;19.07;14.23;;;;;;;17.56;41.25;102969.81;5059661;28;20271;-68
2021/10/09 08:40:12;;;;;;;15.73;14.13;;;;;;;17.88;40.70;102980.88;5059223;28;20468;-68
2021/10/09 08:42:38;;;;;;;22.33;14.03;;;;;;;17.49;41.25;102975.00;5059406;28;20188;-69
2021/10/09 08:45:05;;;;;;;16.33;14.20;;;;;;;16.70;42.15;102988.44;5059322;28;20432;-69
2021/10/09 08:47:34;;;;;;;18.03;14.60;;;;;;;17.17;41.70;102972.69;5059691;28;20225;-69
2021/10/09 08:49:59;;;;;;;18.53;13.37;;;;;;;17.22;40.29;102971.88;5058195;28;20436;-69
2021/10/09 08:52:26;;;;;;;14.70;12.60;;;;;;;18.11;39.88;102973.31;5054437;28;20976;-68
2021/10/09 08:54:51;;;;;;;15.00;13.40;;;;;;;16.67;40.93;102980.47;5053116;28;20412;-69
2021/10/09 08:57:21;;;;;;;18.03;12.83;;;;;;;17.44;40.82;102975.75;5049915;28;20844;-69
2021/10/09 08:59:57;;;;;;;14.33;12.90;;;;;;;17.24;41.67;102981.59;5051309;28;20203;-68
2021/10/09 09:02:28;;;;;;;14.10;12.50;;;;;;;17.11;41.35;102983.09;5033474;28;20495;-68
2021/10/09 09:27:07;;;;;;;19.30;12.40;;;;;;;19.14;34.84;102964.84;5058556;28;20431;-69
2021/10/09 09:40:42;;;;;;;11.23;10.13;;;;;;;17.93;34.71;102946.69;5001664;28;20490;-68
2021/10/09 09:43:08;;;;;;;14.87;11.03;;;;;;;17.42;35.68;102957.28;5034079;28;20423;-68
2021/10/09 09:45:34;;;;;;;13.07;10.30;;;;;;;19.50;33.71;102936.97;5058381;28;20420;-68
2021/10/09 09:48:00;;;;;;;15.20;10.03;;;;;;;17.88;35.50;102943.03;5057822;28;20436;-69
2021/10/09 09:50:26;;;;;;;13.87;10.50;;;;;;;19.47;34.07;102942.19;5058887;28;20408;-69
2021/10/09 09:52:52;;;;;;;12.43;10.20;;;;;;;17.06;36.81;102945.25;5058334;28;20229;-69
2021/10/09 09:55:18;;;;;;;12.57;10.30;;;;;;;18.05;35.73;102943.28;5058336;28;20420;-69
2021/10/09 09:57:44;;;;;;;16.60;10.23;;;;;;;19.39;33.90;102928.03;5059182;28;20180;-70
2021/10/09 10:00:14;;;;;;;10.77;9.63;;;;;;;19.26;32.91;102930.59;5058439;28;20736;-68
2021/10/09 10:02:50;;;;;;;11.83;9.57;;;;;;;20.01;31.91;102926.69;5058146;28;20181;-69
2021/10/09 10:05:15;;;;;;;12.23;10.53;;;;;;;19.21;33.64;102926.13;5058447;28;20852;-69
2021/10/09 10:07:41;;;;;;;10.90;9.20;;;;;;;20.03;31.94;102920.53;5058092;28;20411;-69
2021/10/09 10:10:08;;;;;;;10.43;9.30;;;;;;;19.85;32.08;102920.47;5058373;28;20444;-69
2021/10/09 10:12:34;;;;;;;10.57;9.07;;;;;;;18.92;33.38;102926.75;5040637;28;20205;-69
2021/10/09 10:15:00;;;;;;;11.50;8.83;;;;;;;19.65;32.01;102915.00;5040594;28;20455;-68
2021/10/09 10:17:47;;;;;;;13.33;8.87;;;;;;;20.05;31.45;102923.19;5058477;28;20411;-70
2021/10/09 10:20:20;;;;;;;9.87;8.87;;;;;;;18.14;34.34;102931.13;5057791;28;20213;-69
2021/10/09 10:22:45;;;;;;;9.70;8.73;;;;;;;20.03;31.15;102927.63;5058179;28;20515;-70
2021/10/09 10:25:16;;;;;;;11.20;8.33;;;;;;;17.79;34.17;102935.88;5058352;28;20454;-70
2021/10/09 10:27:42;;;;;;;10.50;8.33;;;;;;;16.98;36.08;102944.19;5057664;28;20177;-70
2021/10/09 10:30:16;;;;;;;10.70;7.90;;;;;;;17.65;34.03;102938.31;5058388;28;20715;-69
2021/10/09 10:32:46;;;;;;;9.57;8.13;;;;;;;17.08;34.49;102940.88;5058087;28;20173;-69
2021/10/09 10:35:29;;;;;;;9.53;7.77;;;;;;;18.10;33.75;102934.56;5057974;28;20486;-69
2021/10/09 10:38:06;;;;;;;12.13;8.50;;;;;;;18.38;32.93;102929.66;5058039;28;20417;-68
2021/10/09 10:41:06;;;;;;;12.07;8.23;;;;;;;19.54;30.65;102933.47;5057965;28;20891;-69
2021/10/09 10:46:18;;;;;;;9.30;7.43;;;;;;;18.33;31.83;102929.63;5057935;28;20443;-70
2021/10/09 10:48:44;;;;;;;8.90;7.93;;;;;;;18.48;32.60;102926.28;5057947;28;20422;-69
2021/10/09 10:51:32;;;;;;;12.47;7.70;;;;;;;19.18;31.36;102917.28;5060801;28;20460;-69
2021/10/09 10:54:15;;;;;;;9.87;7.50;;;;;;;19.04;31.63;102924.22;5062145;28;20431;-70
2021/10/09 10:56:55;;;;;;;9.30;7.00;;;;;;;17.32;33.84;102936.91;5062680;28;20419;-69
2021/10/09 10:59:27;;;;;;;11.73;8.13;;;;;;;17.76;33.38;102931.44;5059371;28;20538;-70
2021/10/09 11:02:12;;;;;;;12.53;8.30;;;;;;;18.22;33.25;102928.56;5058233;28;20461;-69
2021/10/09 11:04:45;;;;;;;10.00;7.87;;;;;;;18.09;32.89;102930.19;5057845;28;20420;-69
2021/10/09 11:07:11;;;;;;;12.43;8.40;;;;;;;17.54;34.16;102929.34;5057551;28;20430;-70
2021/10/09 11:09:40;;;;;;;11.43;8.67;;;;;;;18.27;33.87;102926.00;5057451;28;20478;-69
2021/10/09 11:12:35;;;;;;;12.17;8.73;;;;;;;18.32;33.90;102922.56;5040555;28;20845;-68
2021/10/09 11:15:02;;;;;;;9.10;8.17;;;;;;;16.94;35.94;102929.19;5039695;28;20428;-69
2021/10/09 11:17:37;;;;;;;9.27;8.07;;;;;;;18.35;34.67;102927.00;5057449;28;20420;-69
2021/10/09 11:20:07;;;;;;;20.10;9.30;;;;;;;18.39;34.40;102914.69;5057397;28;20522;-69
2021/10/09 11:22:39;;;;;;;10.47;8.60;;;;;;;17.58;35.88;102915.34;5057306;28;20664;-69
2021/10/09 11:25:04;;;;;;;12.17;8.50;;;;;;;17.07;37.12;102920.66;5040091;28;20877;-68
2021/10/09 11:27:35;;;;;;;9.77;8.37;;;;;;;17.30;36.84;102915.75;5057273;28;20519;-69
2021/10/09 11:30:11;;;;;;;11.00;9.23;;;;;;;17.40;36.38;102921.19;5057290;28;20256;-68
2021/10/09 11:32:40;;;;;;;10.90;8.47;;;;;;;16.22;38.73;102926.00;5057324;28;20690;-69
2021/10/09 11:35:07;;;;;;;12.13;8.50;;;;;;;17.09;37.29;102916.31;5057314;28;20474;-68
2021/10/09 11:37:34;;;;;;;14.00;9.27;;;;;;;16.65;38.60;102918.97;5058657;28;20895;-69
2021/10/09 11:40:03;;;;;;;9.60;8.47;;;;;;;17.16;38.07;102917.31;5061091;28;20497;-69
2021/10/09 11:42:36;;;;;;;13.30;10.30;;;;;;;16.99;38.01;102917.00;5060718;28;20416;-69
2021/10/09 11:45:16;;;;;;;13.27;9.20;;;;;;;16.90;38.21;102919.47;5043407;28;20451;-68
2021/10/09 11:55:59;;;;;;;10.93;9.10;;;;;;;17.02;38.88;102914.41;5060584;28;20451;-68
2021/10/09 11:58:24;;;;;;;9.50;8.50;;;;;;;17.00;38.80;102908.25;5060440;28;20434;-68
2021/10/09 12:00:49;;;;;;;10.03;9.00;;;;;;;17.13;39.16;102906.69;5060350;28;20501;-68
2021/10/09 12:03:31;;;;;;;15.60;9.67;;;;;;;16.55;40.26;102907.38;5061099;28;20571;-69
2021/10/09 12:06:00;;;;;;;10.93;8.83;;;;;;;17.04;39.32;102911.81;5060596;28;20169;-69
2021/10/09 12:08:26;;;;;;;11.83;9.10;;;;;;;17.48;38.78;102915.19;5060217;28;20680;-70
2021/10/09 12:11:31;;;;;;;11.13;9.17;;;;;;;16.97;39.96;102902.91;5060165;28;20416;-69
2021/10/09 12:14:03;;;;;;;13.90;8.40;;;;;;;17.22;39.89;102905.97;5019449;28;20432;-69
2021/10/09 12:16:31;;;;;;;13.13;9.07;;;;;;;17.13;39.35;102897.06;5054482;28;20451;-69
2021/10/09 12:19:01;;;;;;;10.73;9.60;;;;;;;17.93;38.10;102900.06;5060320;28;20451;-67
2021/10/09 12:21:30;;;;;;;12.57;9.57;;;;;;;18.48;37.34;102891.94;5060435;28;20813;-69
2021/10/09 12:23:56;;;;;;;13.20;9.67;;;;;;;16.98;39.73;102899.41;5060079;28;20415;-68
2021/10/09 12:26:23;;;;;;;10.97;8.70;;;;;;;17.10;39.41;102889.09;5060435;28;20385;-69
2021/10/09 12:29:08;;;;;;;13.67;8.33;;;;;;;15.99;41.25;102889.56;5059894;28;20174;-68
2021/10/09 12:31:36;;;;;;;11.63;9.40;;;;;;;16.53;40.79;102892.41;5059848;28;20396;-69
2021/10/09 12:34:02;;;;;;;11.83;9.10;;;;;;;17.83;38.33;102884.91;5059828;28;20447;-68
2021/10/09 12:36:35;;;;;;;12.77;9.00;;;;;;;17.87;38.15;102885.84;5059792;28;20412;-68
2021/10/09 12:39:27;;;;;;;10.80;9.03;;;;;;;16.95;39.10;102878.28;5059723;28;20229;-69
2021/10/09 12:41:53;;;;;;;13.77;8.53;;;;;;;18.07;37.67;102876.47;5059782;28;20416;-69
2021/10/09 12:44:20;;;;;;;11.00;7.80;;;;;;;16.21;40.03;102872.50;5059860;28;20391;-69
2021/10/09 12:46:46;;;;;;;16.13;9.30;;;;;;;15.69;41.08;102866.94;5042498;28;20407;-69
2021/10/09 12:49:12;;;;;;;10.50;9.00;;;;;;;16.60;40.12;102875.84;5059289;28;20412;-68
2021/10/09 12:51:37;;;;;;;9.40;8.03;;;;;;;16.48;39.13;102873.88;5059332;28;20221;-69
2021/10/09 12:54:06;;;;;;;9.80;8.07;;;;;;;16.37;39.16;102870.16;5059558;28;20170;-68
2021/10/09 12:56:32;;;;;;;11.13;8.13;;;;;;;16.17;39.53;102873.28;5059858;28;20165;-69
2021/10/09 12:58:57;;;;;;;11.77;8.10;;;;;;;16.40;39.17;102862.31;5059362;28;20539;-69
2021/10/09 13:01:22;;;;;;;11.40;7.70;;;;;;;15.81;40.17;102859.34;5042055;28;20184;-68
2021/10/09 13:03:48;;;;;;;15.40;8.60;;;;;;;16.64;38.60;102856.63;5060029;28;20224;-69
2021/10/09 13:06:13;;;;;;;8.97;7.63;;;;;;;16.75;38.89;102855.09;5059268;28;20173;-69
2021/10/09 13:08:38;;;;;;;13.00;8.00;;;;;;;16.33;39.26;102853.41;5059205;28;20223;-68
2021/10/09 13:11:04;;;;;;;11.23;7.77;;;;;;;17.11;37.89;102845.19;5059586;28;20286;-68
2021/10/09 13:13:29;;;;;;;10.03;8.07;;;;;;;17.16;37.23;102854.03;5059186;28;20527;-68
2021/10/09 13:15:54;;;;;;;10.27;7.97;;;;;;;17.46;35.93;102847.47;5059098;28;20170;-69
2021/10/09 13:18:20;;;;;;;14.20;8.60;;;;;;;16.42;37.31;102842.19;5059667;28;20161;-68
2021/10/09 13:20:45;;;;;;;9.27;8.13;;;;;;;15.84;38.91;102842.75;5058806;28;20201;-69
2021/10/09 13:23:10;;;;;;;10.20;8.00;;;;;;;16.05;37.61;102841.44;5059287;28;20446;-69
2021/10/09 13:25:36;;;;;;;8.80;7.43;;;;;;;16.32;36.90;102833.22;5059973;28;20557;-68
2021/10/09 13:28:01;;;;;;;9.53;7.53;;;;;;;16.46;35.12;102838.75;5060432;28;20260;-70